Time;durP1;ratioP1;P1;durP2;ratioP2;P2;SDS_P1;SDS_P2;PMS_P1;PMS_P2;Temp;Humidity;BMP_temperature;BMP_pressure;BME280_temperature;BME280_humidity;BME280_pressure;Samples;Min_cycle;Max_cycle;Signal;HPM_P1;HPM_P2
2022/01/02 00:02:27;;;;;;;6.78;3.72;;;11.10;91.80;;;;;;5028232;28;20029;-66
2022/01/02 00:05:05;;;;;;;10.93;4.78;;;11.10;91.60;;;;;;5031726;28;20028;-67
2022/01/02 00:07:35;;;;;;;11.60;4.30;;;11.10;91.70;;;;;;5035809;28;20041;-67
2022/01/02 00:10:04;;;;;;;9.13;4.88;;;11.00;91.70;;;;;;5030728;28;20083;-67
2022/01/02 00:12:34;;;;;;;8.27;4.68;;;11.00;91.80;;;;;;5033104;28;20033;-67
2022/01/02 00:15:05;;;;;;;9.18;4.28;;;10.90;91.80;;;;;;5029796;28;20037;-67
2022/01/02 00:17:31;;;;;;;8.82;4.05;;;10.90;92.00;;;;;;5027909;28;20031;-67
2022/01/02 00:20:03;;;;;;;10.75;4.28;;;10.80;92.00;;;;;;5028739;28;20032;-67
2022/01/02 00:22:34;;;;;;;11.85;4.32;;;10.90;92.10;;;;;;5032399;28;20116;-67
2022/01/02 00:25:05;;;;;;;6.38;3.85;;;10.80;92.00;;;;;;5027028;28;20552;-67
2022/01/02 00:27:34;;;;;;;7.57;4.75;;;10.70;92.20;;;;;;5034691;28;20143;-67
2022/01/02 00:30:04;;;;;;;9.45;4.13;;;10.60;92.30;;;;;;5029082;28;20037;-67
2022/01/02 00:32:32;;;;;;;7.60;4.78;;;10.60;92.40;;;;;;5026178;28;20028;-67
2022/01/02 00:34:59;;;;;;;9.73;4.40;;;10.60;92.80;;;;;;5026918;28;20033;-67
2022/01/02 00:37:26;;;;;;;10.05;5.13;;;10.60;92.50;;;;;;5034297;28;20029;-67
2022/01/02 00:39:52;;;;;;;11.63;4.82;;;10.60;92.60;;;;;;5030172;28;20039;-67
2022/01/02 00:42:40;;;;;;;13.20;5.55;;;10.60;92.40;;;;;;5029037;28;20033;-67
2022/01/02 00:45:35;;;;;;;6.80;4.57;;;10.70;92.40;;;;;;5025336;28;20808;-67
2022/01/02 00:48:17;;;;;;;8.30;4.30;;;10.70;92.20;;;;;;5025718;28;20049;-67
2022/01/02 00:50:49;;;;;;;10.35;4.07;;;10.70;92.30;;;;;;5028044;28;20115;-67
2022/01/02 00:53:18;;;;;;;10.20;4.45;;;10.70;92.10;;;;;;5026767;28;20029;-67
2022/01/02 00:55:47;;;;;;;9.80;4.38;;;10.70;92.10;;;;;;5016915;28;20064;-67
2022/01/02 00:58:16;;;;;;;8.38;3.80;;;10.80;92.00;;;;;;5026787;28;20029;-67
2022/01/02 01:00:50;;;;;;;12.73;4.00;;;10.80;92.00;;;;;;5034208;28;20033;-67
2022/01/02 01:03:25;;;;;;;10.13;4.30;;;10.80;91.90;;;;;;5029067;28;20104;-67
2022/01/02 01:05:53;;;;;;;11.07;4.63;;;10.70;91.90;;;;;;5034560;28;20037;-67
2022/01/02 01:08:22;;;;;;;9.48;4.45;;;10.70;92.00;;;;;;5028023;28;21084;-67
2022/01/02 01:10:48;;;;;;;14.02;4.85;;;10.70;92.10;;;;;;5030812;28;20028;-67
2022/01/02 01:13:14;;;;;;;6.05;3.92;;;10.70;92.00;;;;;;5022485;28;20037;-67
2022/01/02 01:15:40;;;;;;;8.30;4.43;;;10.70;91.90;;;;;;5030660;28;20040;-68
2022/01/02 01:18:06;;;;;;;9.00;4.30;;;10.80;92.00;;;;;;5034117;28;20342;-67
2022/01/02 01:20:38;;;;;;;8.82;4.75;;;10.80;92.00;;;;;;5034897;28;20103;-67
2022/01/02 01:23:05;;;;;;;7.97;4.28;;;10.80;92.00;;;;;;5030707;28;20086;-68
2022/01/02 01:25:31;;;;;;;11.98;4.75;;;10.70;91.90;;;;;;5038282;28;20043;-67
2022/01/02 01:27:57;;;;;;;11.65;4.82;;;10.80;92.00;;;;;;5032567;28;20078;-67
2022/01/02 01:30:26;;;;;;;10.52;4.00;;;10.80;91.80;;;;;;5034687;28;20039;-67
2022/01/02 01:32:53;;;;;;;9.18;4.35;;;10.80;91.80;;;;;;5037244;28;20077;-67
2022/01/02 01:35:20;;;;;;;11.13;4.95;;;10.80;91.90;;;;;;5032119;28;20033;-67
2022/01/02 01:37:46;;;;;;;7.82;4.53;;;10.80;91.90;;;;;;5031432;28;20473;-67
2022/01/02 01:40:12;;;;;;;11.75;5.38;;;10.80;91.90;;;;;;5033870;28;20043;-67
2022/01/02 01:42:44;;;;;;;12.20;5.10;;;10.80;91.80;;;;;;5032510;28;20140;-67
2022/01/02 01:47:54;;;;;;;9.80;4.68;;;10.80;92.00;;;;;;5038885;28;20485;-67
2022/01/02 01:50:24;;;;;;;12.40;4.15;;;10.80;91.80;;;;;;5030743;28;20036;-68
2022/01/02 01:52:50;;;;;;;8.55;5.00;;;10.70;91.90;;;;;;5033926;28;20018;-68
2022/01/02 01:55:16;;;;;;;8.07;4.45;;;10.70;91.90;;;;;;5030591;28;20025;-68
2022/01/02 01:57:43;;;;;;;5.88;4.25;;;10.70;91.90;;;;;;5034683;28;20025;-67
2022/01/02 02:00:14;;;;;;;7.40;4.30;;;10.70;92.00;;;;;;5049186;28;20059;-67
2022/01/02 02:02:50;;;;;;;8.85;5.05;;;10.60;91.80;;;;;;5039060;28;20083;-68
2022/01/02 02:05:18;;;;;;;8.40;4.50;;;10.70;92.00;;;;;;5030311;28;20088;-67
2022/01/02 02:07:47;;;;;;;7.85;4.20;;;10.70;91.90;;;;;;5032626;28;20725;-67
2022/01/02 02:12:56;;;;;;;6.32;4.13;;;10.70;92.00;;;;;;5038159;28;20570;-67
2022/01/02 02:15:23;;;;;;;10.70;5.00;;;10.70;91.90;;;;;;5033192;28;20056;-67
2022/01/02 02:17:51;;;;;;;8.52;4.55;;;10.70;91.80;;;;;;5031035;28;20029;-67
2022/01/02 02:20:45;;;;;;;7.10;4.82;;;10.70;91.70;;;;;;5033334;28;20033;-67
2022/01/02 02:23:17;;;;;;;5.40;3.38;;;10.60;91.70;;;;;;5035036;28;20068;-67
2022/01/02 02:25:43;;;;;;;7.22;4.10;;;10.60;91.70;;;;;;5039075;28;20040;-68
2022/01/02 02:28:15;;;;;;;9.25;4.13;;;10.60;91.80;;;;;;5032707;28;20040;-68
2022/01/02 02:30:46;;;;;;;5.63;3.60;;;10.50;91.70;;;;;;5037542;28;20506;-67
2022/01/02 02:33:13;;;;;;;8.02;4.63;;;10.50;91.90;;;;;;5029365;28;20037;-67
2022/01/02 02:35:40;;;;;;;7.60;4.25;;;10.50;92.00;;;;;;5024356;28;20026;-67
2022/01/02 02:38:07;;;;;;;6.32;4.03;;;10.50;91.90;;;;;;5030745;28;20044;-70
2022/01/02 02:40:36;;;;;;;11.85;4.03;;;10.50;91.80;;;;;;5031979;28;20041;-67
2022/01/02 02:43:20;;;;;;;7.28;4.50;;;10.50;91.90;;;;;;5029952;28;20622;-68
2022/01/02 02:54:35;;;;;;;7.50;4.03;;;10.50;92.10;;;;;;5036064;28;20738;-67
2022/01/02 02:57:10;;;;;;;8.13;4.50;;;10.50;92.00;;;;;;5034597;28;20495;-67
2022/01/02 02:59:36;;;;;;;8.77;4.40;;;10.50;92.00;;;;;;5026390;28;20068;-67
2022/01/02 03:02:04;;;;;;;8.68;4.55;;;10.50;92.10;;;;;;5027956;28;20499;-67
2022/01/02 03:04:37;;;;;;;8.48;4.38;;;10.50;91.90;;;;;;5028274;28;20064;-67
2022/01/02 03:07:03;;;;;;;7.50;3.92;;;10.50;91.90;;;;;;5035287;28;20029;-67
2022/01/02 03:12:01;;;;;;;11.27;4.78;;;10.50;92.10;;;;;;5033014;28;20106;-67
2022/01/02 03:14:28;;;;;;;9.25;4.20;;;10.40;92.10;;;;;;5029185;28;20028;-67
2022/01/02 03:16:54;;;;;;;9.50;4.43;;;10.40;92.10;;;;;;5032576;28;20025;-66
2022/01/02 03:19:20;;;;;;;9.07;4.68;;;10.40;92.30;;;;;;5027266;28;20519;-66
2022/01/02 03:21:46;;;;;;;8.85;5.03;;;10.40;92.20;;;;;;5033385;28;20028;-67
2022/01/02 03:24:12;;;;;;;9.52;4.55;;;10.40;92.10;;;;;;5030753;28;20141;-67
2022/01/02 03:26:37;;;;;;;9.40;4.15;;;10.40;92.20;;;;;;5039381;28;20036;-67
2022/01/02 03:29:03;;;;;;;9.13;4.35;;;10.30;92.20;;;;;;5027880;28;20843;-67
2022/01/02 03:31:29;;;;;;;8.68;4.40;;;10.40;92.20;;;;;;5031428;28;20098;-67
2022/01/02 03:33:55;;;;;;;9.00;4.18;;;10.40;92.20;;;;;;5033093;28;20655;-67
2022/01/02 03:36:21;;;;;;;9.27;4.70;;;10.30;92.10;;;;;;5033553;28;20030;-67
2022/01/02 03:38:47;;;;;;;10.93;4.60;;;10.30;92.30;;;;;;5029607;28;20082;-66
2022/01/02 03:41:13;;;;;;;10.20;4.53;;;10.30;92.30;;;;;;5032803;28;20028;-67
2022/01/02 03:43:39;;;;;;;7.00;4.82;;;10.30;92.30;;;;;;5031115;28;20908;-66
2022/01/02 03:46:05;;;;;;;8.05;4.25;;;10.30;92.30;;;;;;5031698;28;20077;-67
2022/01/02 03:48:32;;;;;;;10.60;5.45;;;10.30;92.40;;;;;;5035404;28;20037;-67
2022/01/02 03:50:58;;;;;;;10.25;4.80;;;10.30;92.30;;;;;;5033885;28;20037;-67
2022/01/02 03:53:25;;;;;;;9.52;4.40;;;10.30;92.30;;;;;;5033762;28;20032;-68
2022/01/02 03:55:52;;;;;;;10.05;4.55;;;10.30;92.30;;;;;;5026429;28;20099;-67
2022/01/02 03:58:18;;;;;;;12.18;4.80;;;10.30;92.40;;;;;;5030213;28;20033;-66
2022/01/02 04:00:44;;;;;;;8.85;4.57;;;10.30;92.30;;;;;;5028824;28;20029;-67
2022/01/02 04:03:10;;;;;;;8.80;4.93;;;10.20;92.50;;;;;;5032288;28;20045;-67
2022/01/02 04:05:35;;;;;;;10.52;4.28;;;10.30;92.50;;;;;;5033176;28;20025;-67
2022/01/02 04:08:01;;;;;;;7.32;4.07;;;10.30;92.50;;;;;;5026688;28;20957;-67
2022/01/02 04:10:27;;;;;;;10.27;4.60;;;10.30;92.50;;;;;;5030393;28;20044;-66
2022/01/02 04:12:55;;;;;;;6.72;4.13;;;10.30;92.50;;;;;;5028029;28;20025;-67
2022/01/02 04:15:20;;;;;;;10.30;4.57;;;10.30;92.60;;;;;;5030449;28;20193;-67
2022/01/02 04:17:46;;;;;;;7.53;4.05;;;10.30;92.60;;;;;;5034407;28;20033;-67
2022/01/02 04:20:15;;;;;;;7.60;4.50;;;10.30;92.70;;;;;;5029514;28;20426;-67
2022/01/02 04:22:42;;;;;;;6.25;4.22;;;10.30;92.80;;;;;;5035893;28;20179;-67
2022/01/02 04:25:09;;;;;;;8.13;4.15;;;10.30;92.80;;;;;;5013321;28;20033;-67
2022/01/02 04:27:34;;;;;;;6.90;4.10;;;10.40;92.70;;;;;;5027956;28;20036;-67
2022/01/02 04:30:01;;;;;;;6.25;3.83;;;10.40;92.60;;;;;;5029049;28;20067;-67
2022/01/02 04:32:26;;;;;;;4.63;3.53;;;10.40;92.70;;;;;;5031790;28;20064;-67
2022/01/02 04:34:53;;;;;;;8.82;3.80;;;10.50;92.60;;;;;;5032545;28;20084;-67
2022/01/02 04:37:18;;;;;;;6.50;3.90;;;10.50;92.70;;;;;;5027827;28;20037;-67
2022/01/02 04:39:44;;;;;;;5.72;3.40;;;10.50;92.60;;;;;;5031197;28;20076;-67
2022/01/02 04:42:10;;;;;;;9.70;4.00;;;10.50;92.50;;;;;;5028417;28;20025;-67
2022/01/02 04:44:37;;;;;;;7.13;4.05;;;10.50;92.70;;;;;;5032547;28;20843;-67
2022/01/02 04:47:03;;;;;;;7.03;3.65;;;10.50;92.70;;;;;;5032650;28;20087;-67
2022/01/02 04:49:30;;;;;;;5.30;3.33;;;10.50;92.60;;;;;;5030936;28;20378;-67
2022/01/02 04:51:56;;;;;;;6.32;3.72;;;10.50;92.50;;;;;;5033115;28;20029;-67
2022/01/02 04:54:23;;;;;;;5.28;3.13;;;10.40;92.50;;;;;;5030234;28;20080;-67
2022/01/02 04:56:49;;;;;;;6.30;3.67;;;10.40;92.60;;;;;;5033895;28;20140;-67
2022/01/02 04:59:15;;;;;;;9.10;3.97;;;10.40;92.80;;;;;;5036232;28;20064;-67
2022/01/02 05:01:42;;;;;;;4.55;3.10;;;10.30;92.90;;;;;;5034681;28;20021;-67
2022/01/02 05:04:07;;;;;;;6.30;3.17;;;10.30;93.00;;;;;;5029966;28;20033;-67
2022/01/02 05:06:33;;;;;;;5.82;3.10;;;10.20;93.10;;;;;;5035533;28;20024;-66
2022/01/02 05:09:02;;;;;;;11.68;4.15;;;10.20;93.10;;;;;;5027356;28;20709;-67
2022/01/02 05:11:28;;;;;;;6.35;3.22;;;10.20;93.30;;;;;;5026923;28;20029;-67
2022/01/02 05:13:54;;;;;;;8.07;3.60;;;10.20;93.20;;;;;;5033070;28;20851;-67
2022/01/02 05:16:20;;;;;;;8.13;3.58;;;10.10;93.30;;;;;;5034609;28;20552;-67
2022/01/02 05:18:45;;;;;;;8.80;3.78;;;10.20;93.60;;;;;;5036716;28;20439;-70
2022/01/02 05:21:11;;;;;;;5.70;3.20;;;10.20;93.60;;;;;;5034377;28;20096;-67
2022/01/02 05:23:37;;;;;;;8.80;3.72;;;10.20;93.30;;;;;;5038419;28;20068;-67
2022/01/02 05:26:04;;;;;;;6.90;3.25;;;10.20;93.30;;;;;;5030856;28;20048;-67
2022/01/02 05:28:30;;;;;;;7.35;3.88;;;10.30;93.50;;;;;;5036441;28;20402;-67
2022/01/02 05:30:56;;;;;;;7.18;3.83;;;10.30;93.50;;;;;;5033368;28;20116;-67
2022/01/02 05:33:22;;;;;;;6.22;3.45;;;10.40;93.30;;;;;;5034063;28;20083;-67
2022/01/02 05:35:48;;;;;;;4.75;2.95;;;10.30;93.20;;;;;;5031574;28;20025;-67
2022/01/02 05:38:15;;;;;;;6.60;3.35;;;10.30;93.20;;;;;;5032414;28;20577;-67
2022/01/02 05:40:42;;;;;;;4.97;3.20;;;10.30;93.10;;;;;;5032642;28;20497;-68
2022/01/02 05:43:09;;;;;;;5.47;3.22;;;10.20;93.30;;;;;;5035576;28;20033;-67
2022/01/02 05:45:35;;;;;;;4.38;2.80;;;10.20;93.60;;;;;;5031916;28;20035;-67
2022/01/02 05:48:02;;;;;;;5.88;2.70;;;10.20;93.60;;;;;;5033991;28;21034;-67
2022/01/02 05:50:29;;;;;;;6.57;3.20;;;10.20;93.50;;;;;;5032225;28;20033;-67
2022/01/02 05:52:54;;;;;;;8.75;3.28;;;10.10;93.50;;;;;;5031769;28;20029;-67
2022/01/02 05:55:20;;;;;;;5.18;2.83;;;10.10;93.60;;;;;;5040487;28;20114;-67
2022/01/02 05:57:46;;;;;;;6.28;3.00;;;10.00;93.80;;;;;;5036951;28;20383;-68
2022/01/02 06:00:12;;;;;;;5.75;3.15;;;10.00;93.60;;;;;;5031021;28;20029;-68
2022/01/02 06:02:43;;;;;;;5.53;2.78;;;10.00;93.60;;;;;;5039122;28;20403;-66
2022/01/02 06:05:12;;;;;;;5.70;3.10;;;10.00;93.90;;;;;;5027796;28;20040;-66
2022/01/02 06:07:38;;;;;;;6.50;3.17;;;10.00;94.00;;;;;;5031305;28;20082;-67
2022/01/02 06:10:07;;;;;;;4.47;3.10;;;10.00;94.20;;;;;;5034325;28;20040;-66
2022/01/02 06:12:34;;;;;;;5.22;3.00;;;10.10;94.20;;;;;;5033329;28;20067;-67
2022/01/02 06:15:00;;;;;;;5.55;2.88;;;10.20;94.20;;;;;;5032698;28;20568;-67
2022/01/02 06:17:26;;;;;;;6.93;3.25;;;10.30;94.10;;;;;;5034770;28;20028;-67
2022/01/02 06:19:52;;;;;;;6.60;3.00;;;10.40;93.90;;;;;;5029513;28;20480;-67
2022/01/02 06:22:18;;;;;;;4.53;3.28;;;10.40;93.70;;;;;;5026704;28;20036;-67
2022/01/02 06:24:45;;;;;;;5.45;2.97;;;10.40;93.70;;;;;;5026448;28;20028;-67
2022/01/02 06:27:10;;;;;;;4.97;2.88;;;10.50;93.50;;;;;;5024905;28;20040;-67
2022/01/02 06:29:37;;;;;;;7.35;3.30;;;10.50;93.50;;;;;;5032088;28;20049;-67
2022/01/02 06:32:04;;;;;;;5.53;2.80;;;10.60;93.50;;;;;;5028680;28;20052;-67
2022/01/02 06:34:31;;;;;;;8.18;2.88;;;10.70;93.60;;;;;;5018092;28;20025;-67
2022/01/02 06:36:57;;;;;;;5.85;2.75;;;10.70;93.40;;;;;;5027322;28;20076;-67
2022/01/02 06:39:23;;;;;;;6.18;3.30;;;10.70;93.60;;;;;;5011929;28;20030;-67
2022/01/02 06:41:51;;;;;;;4.65;2.90;;;10.70;93.30;;;;;;5026120;28;20822;-67
2022/01/02 06:44:18;;;;;;;3.65;2.47;;;10.70;93.20;;;;;;5031266;28;20025;-67
2022/01/02 06:46:45;;;;;;;4.18;2.60;;;10.70;93.10;;;;;;5022418;28;20025;-66
2022/01/02 06:49:11;;;;;;;4.93;2.90;;;10.70;93.50;;;;;;5030810;28;20147;-67
2022/01/02 06:51:37;;;;;;;6.28;2.90;;;10.70;93.30;;;;;;5033945;28;20110;-67
2022/01/02 06:54:03;;;;;;;4.65;2.33;;;10.80;93.30;;;;;;5024372;28;20061;-66
2022/01/02 06:56:29;;;;;;;6.80;2.65;;;10.80;93.30;;;;;;5031028;28;20083;-67
2022/01/02 06:58:55;;;;;;;8.77;2.85;;;10.80;93.20;;;;;;5033426;28;20033;-67
2022/01/02 07:01:21;;;;;;;3.47;2.17;;;10.80;93.10;;;;;;5023077;28;20116;-67
2022/01/02 07:03:46;;;;;;;2.92;2.05;;;10.90;93.00;;;;;;5026409;28;20033;-67
2022/01/02 07:06:12;;;;;;;4.10;2.58;;;10.90;92.90;;;;;;5029956;28;20033;-67
2022/01/02 07:08:38;;;;;;;5.45;2.30;;;10.90;93.00;;;;;;5025145;28;20045;-67
2022/01/02 07:11:05;;;;;;;2.83;2.25;;;10.90;93.00;;;;;;5033698;28;20033;-67
2022/01/02 07:13:31;;;;;;;11.38;4.53;;;10.90;92.90;;;;;;5026985;28;20052;-67
2022/01/02 07:15:56;;;;;;;8.25;3.85;;;10.90;92.90;;;;;;5027692;28;20025;-68
2022/01/02 07:18:22;;;;;;;7.32;3.60;;;11.00;92.80;;;;;;5028685;28;20042;-67
2022/01/02 07:20:48;;;;;;;11.45;6.03;;;11.00;92.80;;;;;;5028406;28;20063;-67
2022/01/02 07:23:13;;;;;;;15.73;7.03;;;11.10;92.60;;;;;;5026614;28;20044;-67
2022/01/02 07:25:39;;;;;;;14.88;7.05;;;11.10;92.60;;;;;;5026433;28;20107;-67
2022/01/02 07:28:05;;;;;;;18.85;9.75;;;11.20;92.50;;;;;;5026173;28;20044;-67
2022/01/02 07:30:31;;;;;;;11.27;5.90;;;11.20;92.60;;;;;;5030428;28;20029;-67
2022/01/02 07:33:01;;;;;;;8.18;4.15;;;11.20;92.60;;;;;;5029941;28;20057;-67
2022/01/02 07:35:29;;;;;;;4.65;2.92;;;11.20;92.60;;;;;;5027289;28;20029;-66
2022/01/02 07:37:55;;;;;;;5.15;2.42;;;11.20;92.60;;;;;;5031843;28;20609;-67
2022/01/02 07:40:21;;;;;;;3.58;2.20;;;11.10;92.60;;;;;;5026529;28;20174;-67
2022/01/02 07:42:47;;;;;;;2.95;2.20;;;11.10;92.60;;;;;;5027796;28;20041;-67
2022/01/02 07:45:18;;;;;;;5.45;2.15;;;11.10;92.60;;;;;;5023649;28;20037;-67
2022/01/02 07:47:45;;;;;;;6.70;2.60;;;11.20;92.50;;;;;;5031266;28;20457;-67
2022/01/02 07:50:11;;;;;;;6.05;2.38;;;11.20;92.40;;;;;;5032669;28;20026;-67
2022/01/02 07:52:37;;;;;;;3.08;2.33;;;11.20;92.40;;;;;;5026058;28;20132;-67
2022/01/02 07:55:03;;;;;;;3.80;2.03;;;11.30;92.20;;;;;;5028230;28;20033;-67
2022/01/02 07:57:28;;;;;;;5.35;2.58;;;11.20;92.20;;;;;;5023004;28;20045;-68
2022/01/02 07:59:54;;;;;;;6.30;3.60;;;11.30;92.30;;;;;;5033023;28;20037;-67
2022/01/02 08:02:20;;;;;;;4.55;2.33;;;11.30;92.30;;;;;;5031429;28;20042;-67
2022/01/02 08:04:45;;;;;;;4.50;2.30;;;11.30;92.20;;;;;;5034687;28;20033;-67
2022/01/02 08:07:11;;;;;;;4.00;2.05;;;11.40;92.10;;;;;;5033681;28;20037;-67
2022/01/02 08:09:37;;;;;;;4.03;2.72;;;11.40;92.10;;;;;;5033097;28;20067;-67
2022/01/02 08:12:03;;;;;;;5.13;2.00;;;11.40;92.00;;;;;;5030648;28;20140;-67
2022/01/02 08:14:28;;;;;;;4.28;2.13;;;11.30;92.20;;;;;;5025974;28;20131;-67
2022/01/02 08:16:54;;;;;;;7.72;2.20;;;11.40;92.30;;;;;;5032434;28;20059;-67
2022/01/02 08:19:20;;;;;;;7.43;2.78;;;11.50;92.20;;;;;;5027840;28;20148;-70
2022/01/02 08:21:46;;;;;;;6.10;2.08;;;11.50;92.00;;;;;;5028071;28;20076;-67
2022/01/02 08:24:11;;;;;;;5.28;2.10;;;11.50;92.00;;;;;;5024084;28;20112;-67
2022/01/02 08:26:37;;;;;;;7.00;2.65;;;11.60;92.00;;;;;;5027797;28;20548;-67
2022/01/02 08:29:03;;;;;;;5.32;2.00;;;11.60;91.90;;;;;;5029901;28;20085;-67
2022/01/02 08:31:30;;;;;;;5.85;2.45;;;11.70;92.00;;;;;;5026768;28;20030;-67
2022/01/02 08:33:56;;;;;;;4.20;2.30;;;11.70;91.80;;;;;;5026658;28;20747;-67
2022/01/02 08:36:23;;;;;;;5.05;2.33;;;11.70;91.70;;;;;;5029271;28;20473;-67
2022/01/02 08:38:48;;;;;;;2.25;1.67;;;11.70;91.60;;;;;;5033728;28;20027;-67
2022/01/02 08:41:15;;;;;;;3.85;2.08;;;11.80;91.70;;;;;;5029718;28;20033;-67
2022/01/02 08:43:42;;;;;;;3.97;2.13;;;11.80;91.70;;;;;;5021590;28;20035;-67
2022/01/02 08:46:09;;;;;;;4.05;2.28;;;11.80;91.80;;;;;;5027987;28;20068;-67
2022/01/02 08:48:35;;;;;;;33.40;16.70;;;11.80;91.70;;;;;;5025651;28;20033;-67
2022/01/02 08:51:00;;;;;;;10.00;6.80;;;11.80;91.90;;;;;;5032482;28;20041;-67
2022/01/02 08:53:31;;;;;;;2.80;1.98;;;11.90;92.00;;;;;;5027496;28;20033;-67
2022/01/02 08:55:57;;;;;;;4.72;2.15;;;12.00;91.80;;;;;;5026712;28;20493;-67
2022/01/02 08:58:22;;;;;;;9.02;4.75;;;12.00;91.80;;;;;;5024840;28;20056;-68
2022/01/02 09:00:48;;;;;;;8.52;2.63;;;12.00;92.00;;;;;;5033487;28;20107;-67
2022/01/02 09:03:15;;;;;;;10.85;3.45;;;12.10;91.90;;;;;;5030092;28;20057;-67
2022/01/02 09:05:41;;;;;;;11.02;4.60;;;12.10;91.90;;;;;;5028072;28;20030;-67
2022/01/02 09:08:08;;;;;;;6.93;3.85;;;12.10;92.00;;;;;;5027734;28;20044;-68
2022/01/02 09:10:33;;;;;;;8.90;4.63;;;12.10;91.90;;;;;;5028187;28;20029;-68
2022/01/02 09:12:59;;;;;;;9.00;4.15;;;12.10;91.90;;;;;;5026892;28;20587;-68
2022/01/02 09:15:25;;;;;;;10.23;4.78;;;12.10;92.00;;;;;;5022459;28;20039;-67
2022/01/02 09:17:51;;;;;;;4.95;3.08;;;12.20;92.00;;;;;;5025506;28;20021;-68
2022/01/02 09:20:17;;;;;;;7.82;3.58;;;12.20;92.10;;;;;;5031241;28;20037;-68
2022/01/02 09:22:43;;;;;;;7.32;4.55;;;12.20;92.00;;;;;;5023343;28;20033;-67
2022/01/02 09:25:10;;;;;;;6.57;2.10;;;12.20;92.10;;;;;;5028419;28;20036;-68
2022/01/02 09:27:36;;;;;;;7.07;2.03;;;12.20;92.10;;;;;;5031737;28;20779;-68
2022/01/02 09:30:07;;;;;;;6.65;2.10;;;12.30;91.90;;;;;;5028002;28;20568;-68
2022/01/02 09:32:35;;;;;;;3.42;2.40;;;12.30;91.90;;;;;;5029693;28;20048;-68
2022/01/02 09:35:03;;;;;;;5.10;2.17;;;12.30;92.00;;;;;;5030575;28;20036;-68
2022/01/02 09:37:28;;;;;;;3.58;2.13;;;12.30;92.00;;;;;;5025020;28;20041;-68
2022/01/02 09:39:55;;;;;;;4.45;2.63;;;12.30;92.00;;;;;;5029453;28;20039;-67
2022/01/02 09:42:21;;;;;;;7.80;2.20;;;12.40;92.00;;;;;;5032015;28;20040;-67
2022/01/02 09:44:47;;;;;;;2.55;1.75;;;12.40;91.90;;;;;;5031082;28;20031;-67
2022/01/02 09:47:18;;;;;;;2.70;1.92;;;12.20;91.90;;;;;;5032157;28;20438;-67
2022/01/02 09:49:46;;;;;;;5.78;2.20;;;12.20;92.60;;;;;;5029952;28;20088;-68
2022/01/02 09:52:11;;;;;;;5.95;1.88;;;12.20;92.40;;;;;;5030969;28;20036;-67
2022/01/02 09:54:37;;;;;;;8.13;2.00;;;12.20;92.50;;;;;;5031092;28;20021;-67
2022/01/02 09:57:03;;;;;;;5.90;2.25;;;12.30;92.60;;;;;;5025859;28;20884;-68
2022/01/02 09:59:29;;;;;;;3.70;1.98;;;12.40;92.40;;;;;;5034858;28;20886;-67
2022/01/02 10:01:55;;;;;;;3.38;1.92;;;12.40;92.30;;;;;;5028643;28;20064;-68
2022/01/02 10:04:39;;;;;;;4.53;2.00;;;12.40;92.10;;;;;;5031877;28;20173;-67
2022/01/02 10:07:06;;;;;;;4.60;1.90;;;12.40;92.20;;;;;;5027126;28;20029;-67
2022/01/02 10:09:32;;;;;;;5.57;2.28;;;12.40;92.30;;;;;;5028285;28;20136;-67
2022/01/02 10:12:27;;;;;;;4.80;2.15;;;12.40;92.40;;;;;;5029835;28;20029;-67
2022/01/02 10:15:20;;;;;;;4.15;1.67;;;12.40;92.40;;;;;;5035197;28;20584;-67
2022/01/02 10:18:07;;;;;;;6.32;2.22;;;12.40;92.60;;;;;;5032281;28;20076;-67
2022/01/02 10:20:33;;;;;;;;;;;12.40;92.60;;;;;;5032270;28;20036;-67
2022/01/02 10:22:59;;;;;;;5.13;2.10;;;12.30;92.70;;;;;;5029877;28;19913;-67
2022/01/02 10:25:45;;;;;;;6.63;1.90;;;12.30;92.80;;;;;;5034596;28;20133;-67
2022/01/02 10:28:26;;;;;;;4.30;2.50;;;12.20;93.10;;;;;;5025197;28;20048;-67
2022/01/02 10:30:57;;;;;;;3.83;1.98;;;12.20;93.20;;;;;;5022600;28;20032;-67
2022/01/02 10:33:23;;;;;;;7.50;2.05;;;12.10;93.30;;;;;;5029995;28;20033;-67
2022/01/02 10:36:00;;;;;;;7.43;2.40;;;12.20;93.20;;;;;;5030188;28;20032;-66
2022/01/02 10:38:26;;;;;;;4.35;1.85;;;12.30;93.00;;;;;;5026667;28;20033;-67
2022/01/02 10:40:52;;;;;;;3.88;2.13;;;12.30;92.60;;;;;;5032145;28;20140;-67
2022/01/02 10:43:34;;;;;;;5.03;2.70;;;12.30;92.80;;;;;;5029617;28;20033;-67
2022/01/02 10:46:09;;;;;;;8.15;2.42;;;12.30;92.80;;;;;;5014417;28;20750;-67
2022/01/02 10:48:39;;;;;;;5.07;1.87;;;12.40;92.70;;;;;;5031918;28;20035;-67
2022/01/02 10:51:08;;;;;;;9.35;2.10;;;12.40;92.80;;;;;;5008896;28;20233;-66
2022/01/02 10:53:38;;;;;;;5.95;1.88;;;12.40;92.50;;;;;;5033675;28;20447;-67
2022/01/02 10:56:05;;;;;;;6.72;2.00;;;12.30;92.70;;;;;;5008496;28;20025;-68
2022/01/02 10:58:33;;;;;;;3.90;2.00;;;12.30;92.90;;;;;;5024643;28;20040;-67
2022/01/02 11:01:08;;;;;;;7.50;2.28;;;12.40;92.80;;;;;;5026517;28;20371;-67
2022/01/02 11:03:34;;;;;;;2.83;2.22;;;12.30;92.90;;;;;;5026709;28;20144;-67
2022/01/02 11:06:08;;;;;;;11.25;3.03;;;12.30;92.90;;;;;;5024516;28;20036;-68
2022/01/02 11:08:37;;;;;;;3.85;2.40;;;12.30;92.80;;;;;;5029790;28;20062;-68
2022/01/02 11:11:04;;;;;;;7.20;2.72;;;12.30;92.80;;;;;;5020000;28;20045;-68
2022/01/02 11:13:32;;;;;;;9.20;2.25;;;12.20;92.80;;;;;;5026842;28;20045;-68
2022/01/02 11:16:01;;;;;;;4.90;2.35;;;12.30;93.00;;;;;;5029097;28;20098;-68
2022/01/02 11:18:31;;;;;;;7.05;2.47;;;12.30;92.90;;;;;;5026736;28;20029;-69
2022/01/02 11:20:57;;;;;;;3.83;2.03;;;12.30;93.30;;;;;;5026123;28;20791;-68
2022/01/02 11:23:55;;;;;;;9.35;2.65;;;12.20;93.30;;;;;;5028919;28;20051;-70
2022/01/02 11:26:34;;;;;;;6.60;2.28;;;12.30;93.30;;;;;;5031142;28;20028;-68
2022/01/02 11:29:00;;;;;;;5.10;2.10;;;12.40;93.30;;;;;;5032120;28;20036;-68
2022/01/02 11:31:31;;;;;;;4.38;1.95;;;12.30;93.40;;;;;;5031080;28;20033;-68
2022/01/02 11:33:58;;;;;;;7.80;2.70;;;12.30;93.40;;;;;;5028450;28;20174;-68
2022/01/02 11:36:31;;;;;;;6.90;2.40;;;12.20;93.70;;;;;;5033015;28;20234;-68
2022/01/02 11:39:09;;;;;;;4.10;2.20;;;12.20;93.80;;;;;;5027698;28;20029;-68
2022/01/02 11:41:50;;;;;;;7.72;2.20;;;12.20;94.00;;;;;;5020455;28;20052;-68
2022/01/02 11:44:20;;;;;;;7.28;3.03;;;12.20;94.00;;;;;;5024929;28;20033;-68
2022/01/02 11:46:53;;;;;;;8.60;2.65;;;12.20;93.90;;;;;;5030403;28;20040;-68
2022/01/02 11:49:40;;;;;;;5.95;2.53;;;12.20;93.90;;;;;;5026399;28;20034;-68
2022/01/02 11:52:08;;;;;;;10.20;2.38;;;12.10;94.00;;;;;;5015820;28;20039;-69
2022/01/02 11:54:46;;;;;;;10.40;2.90;;;12.00;94.30;;;;;;5027289;28;20040;-66
2022/01/02 11:57:12;;;;;;;6.25;2.78;;;12.00;94.50;;;;;;5029096;28;20036;-67
2022/01/02 11:59:42;;;;;;;8.38;2.47;;;12.00;94.50;;;;;;5027450;28;20269;-66
2022/01/02 12:02:23;;;;;;;9.60;3.42;;;12.00;94.80;;;;;;5022725;28;20026;-66
2022/01/02 12:05:02;;;;;;;10.27;3.65;;;12.00;95.00;;;;;;5027427;28;20495;-66
2022/01/02 12:07:34;;;;;;;11.98;3.50;;;11.90;95.40;;;;;;5024325;28;20028;-66
2022/01/02 12:10:21;;;;;;;10.35;3.90;;;11.80;95.30;;;;;;5025251;28;20087;-66
2022/01/02 12:13:10;;;;;;;8.45;3.72;;;11.80;95.60;;;;;;5024190;28;20025;-66
2022/01/02 12:15:39;;;;;;;7.28;3.10;;;11.80;95.40;;;;;;5025733;28;20033;-65
2022/01/02 12:18:10;;;;;;;7.55;4.00;;;11.80;95.60;;;;;;5025127;28;20029;-67
2022/01/02 12:20:51;;;;;;;12.07;3.90;;;11.80;95.50;;;;;;5034993;28;20033;-67
2022/01/02 12:23:43;;;;;;;13.02;3.90;;;11.90;95.50;;;;;;5024666;28;20040;-65
2022/01/02 12:26:21;;;;;;;9.25;3.85;;;11.80;95.50;;;;;;5026874;28;20034;-66
2022/01/02 12:28:57;;;;;;;12.65;3.42;;;11.70;95.60;;;;;;5031147;28;20409;-66
2022/01/02 12:31:28;;;;;;;9.05;4.10;;;11.80;95.60;;;;;;5028225;28;20068;-64
2022/01/02 12:33:58;;;;;;;7.80;3.63;;;11.80;95.60;;;;;;5031698;28;20037;-66
2022/01/02 12:36:24;;;;;;;8.73;4.00;;;11.80;95.60;;;;;;5026086;28;20068;-65
2022/01/02 12:39:11;;;;;;;11.65;4.45;;;11.70;95.50;;;;;;5024667;28;20143;-68
2022/01/02 12:41:39;;;;;;;12.13;3.83;;;11.60;95.70;;;;;;5025214;28;20043;-66
2022/01/02 12:44:23;;;;;;;10.05;3.83;;;11.60;95.70;;;;;;5021894;28;20128;-68
2022/01/02 12:46:51;;;;;;;8.40;3.67;;;11.70;95.60;;;;;;5032429;28;20825;-68
2022/01/02 12:49:22;;;;;;;10.48;4.07;;;11.70;95.60;;;;;;5026561;28;20044;-68
2022/01/02 12:51:57;;;;;;;12.45;4.95;;;11.70;95.40;;;;;;5011738;28;20031;-67
2022/01/02 12:54:27;;;;;;;11.68;4.43;;;11.80;95.10;;;;;;5031282;28;20349;-69
2022/01/02 12:57:08;;;;;;;10.27;4.38;;;11.70;95.30;;;;;;5027020;28;20061;-68
2022/01/02 12:59:35;;;;;;;13.48;4.20;;;11.70;95.30;;;;;;5024823;28;20025;-68
2022/01/02 13:02:08;;;;;;;10.93;4.72;;;11.80;95.00;;;;;;5035749;28;20033;-69
2022/01/02 13:04:41;;;;;;;8.30;3.40;;;11.80;94.90;;;;;;5028050;28;20102;-66
2022/01/02 13:07:14;;;;;;;9.68;3.28;;;11.90;94.70;;;;;;5023729;28;20043;-68
2022/01/02 13:09:45;;;;;;;8.70;3.28;;;11.80;94.60;;;;;;5023069;28;20115;-65
2022/01/02 13:12:14;;;;;;;7.43;3.08;;;11.80;94.80;;;;;;5025208;28;20126;-65